Time;durP1;ratioP1;P1;durP2;ratioP2;P2;SDS_P1;SDS_P2;PMS_P1;PMS_P2;Temp;Humidity;BMP_temperature;BMP_pressure;BME280_temperature;BME280_humidity;BME280_pressure;Samples;Min_cycle;Max_cycle;Signal;HPM_P1;HPM_P2
2022/11/24 00:01:10;;;;;;;3.40;1.93;;;;;;;;;;5064508;28;20687;-24
2022/11/24 00:03:37;;;;;;;3.63;1.90;;;;;;;;;;5072238;28;20228;-27
2022/11/24 00:06:06;;;;;;;4.57;1.50;;;;;;;;;;5073106;28;20205;-26
2022/11/24 00:08:33;;;;;;;6.47;1.70;;;;;;;;;;5062195;28;20233;-26
2022/11/24 00:11:04;;;;;;;3.43;1.60;;;;;;;;;;5070006;28;20315;-26
2022/11/24 00:13:31;;;;;;;3.37;1.60;;;;;;;;;;5073235;28;20296;-24
2022/11/24 00:16:06;;;;;;;4.07;1.80;;;;;;;;;;5066188;28;20215;-27
2022/11/24 00:18:33;;;;;;;3.00;1.60;;;;;;;;;;5072047;28;20204;-28
2022/11/24 00:21:00;;;;;;;4.23;1.50;;;;;;;;;;5072928;28;20259;-27
2022/11/24 00:23:27;;;;;;;4.20;1.60;;;;;;;;;;5069581;28;20212;-25
2022/11/24 00:25:55;;;;;;;4.40;1.83;;;;;;;;;;5062785;28;20202;-25
2022/11/24 00:28:22;;;;;;;5.27;1.63;;;;;;;;;;5071246;28;20316;-27
2022/11/24 00:30:49;;;;;;;2.33;1.60;;;;;;;;;;5063810;28;20266;-25
2022/11/24 00:33:17;;;;;;;5.47;1.67;;;;;;;;;;5065420;28;20314;-27
2022/11/24 00:35:45;;;;;;;4.90;1.70;;;;;;;;;;5069997;28;20201;-28
2022/11/24 00:38:12;;;;;;;3.17;1.80;;;;;;;;;;5071914;28;20304;-28
2022/11/24 00:40:39;;;;;;;3.70;1.37;;;;;;;;;;5072219;28;20244;-27
2022/11/24 00:43:06;;;;;;;5.03;1.70;;;;;;;;;;5062067;28;20217;-28
2022/11/24 00:45:33;;;;;;;3.90;2.03;;;;;;;;;;5062287;28;20201;-26
2022/11/24 00:48:00;;;;;;;3.67;1.80;;;;;;;;;;5070013;28;20260;-27
2022/11/24 00:50:29;;;;;;;3.57;1.53;;;;;;;;;;5069789;28;20232;-26
2022/11/24 00:52:56;;;;;;;5.43;2.17;;;;;;;;;;5065995;28;20261;-26
2022/11/24 00:55:23;;;;;;;8.90;1.60;;;;;;;;;;5068748;28;20235;-26
2022/11/24 00:57:50;;;;;;;5.23;1.50;;;;;;;;;;5068935;28;20212;-26
2022/11/24 01:00:18;;;;;;;5.63;1.63;;;;;;;;;;5060066;28;20236;-27
2022/11/24 01:02:45;;;;;;;4.57;1.60;;;;;;;;;;5069218;28;20197;-26
2022/11/24 01:05:12;;;;;;;6.93;1.30;;;;;;;;;;5070097;28;20520;-28
2022/11/24 01:07:41;;;;;;;4.83;1.30;;;;;;;;;;5133198;23;20321;-28
2022/11/24 01:10:08;;;;;;;3.83;1.60;;;;;;;;;;5031966;28;20301;-27
2022/11/24 01:12:36;;;;;;;4.27;1.47;;;;;;;;;;5049516;28;20224;-33
2022/11/24 01:15:03;;;;;;;2.37;1.30;;;;;;;;;;5038765;28;20209;-31
2022/11/24 01:17:30;;;;;;;7.17;1.70;;;;;;;;;;5045844;28;20201;-29
2022/11/24 01:20:06;;;;;;;2.43;1.13;;;;;;;;;;5052325;28;20296;-27
2022/11/24 01:22:34;;;;;;;3.37;1.60;;;;;;;;;;5051440;28;20204;-28
2022/11/24 01:25:02;;;;;;;4.43;1.57;;;;;;;;;;5046415;28;20210;-26
2022/11/24 01:27:29;;;;;;;4.47;1.50;;;;;;;;;;5049003;28;20373;-29
2022/11/24 01:29:56;;;;;;;3.43;1.90;;;;;;;;;;5039604;28;20203;-30
2022/11/24 01:32:23;;;;;;;5.53;1.50;;;;;;;;;;5048617;28;20220;-27
2022/11/24 01:34:51;;;;;;;3.13;1.30;;;;;;;;;;5049315;28;20201;-29
2022/11/24 01:37:18;;;;;;;5.47;1.20;;;;;;;;;;5048235;28;20206;-28
2022/11/24 01:39:45;;;;;;;2.23;1.30;;;;;;;;;;5036210;28;20209;-27
2022/11/24 01:42:13;;;;;;;3.63;1.63;;;;;;;;;;5042228;28;20230;-27
2022/11/24 01:44:43;;;;;;;4.60;1.37;;;;;;;;;;5041275;28;20261;-27
2022/11/24 01:47:22;;;;;;;3.87;1.20;;;;;;;;;;5044208;28;20207;-31
2022/11/24 01:49:52;;;;;;;2.40;1.40;;;;;;;;;;5048694;28;20228;-27
2022/11/24 01:52:21;;;;;;;3.03;1.10;;;;;;;;;;5041336;28;20331;-29
2022/11/24 01:54:50;;;;;;;6.77;1.93;;;;;;;;;;5045962;28;20206;-28
2022/11/24 01:57:22;;;;;;;7.03;1.50;;;;;;;;;;5048521;28;20202;-32
2022/11/24 01:59:51;;;;;;;5.40;1.20;;;;;;;;;;5040372;28;20217;-28
2022/11/24 02:02:18;;;;;;;6.43;1.80;;;;;;;;;;5037460;28;20198;-28
2022/11/24 02:04:46;;;;;;;3.87;1.50;;;;;;;;;;5043531;28;20199;-28
2022/11/24 02:07:13;;;;;;;3.70;1.60;;;;;;;;;;5049386;28;20202;-28
2022/11/24 02:09:43;;;;;;;6.53;1.63;;;;;;;;;;5046540;28;20205;-28
2022/11/24 02:12:11;;;;;;;2.37;1.40;;;;;;;;;;5045860;28;20229;-29
2022/11/24 02:14:41;;;;;;;4.33;1.20;;;;;;;;;;5043904;28;20308;-28
2022/11/24 02:17:08;;;;;;;5.20;1.67;;;;;;;;;;5048496;28;20212;-29
2022/11/24 02:19:42;;;;;;;4.57;1.50;;;;;;;;;;5052266;28;20209;-28
2022/11/24 02:22:12;;;;;;;8.73;1.43;;;;;;;;;;5049826;28;20224;-29
2022/11/24 02:24:42;;;;;;;4.10;1.10;;;;;;;;;;5050985;28;20224;-27
2022/11/24 02:27:11;;;;;;;4.40;1.60;;;;;;;;;;5051468;28;20220;-30
2022/11/24 02:29:38;;;;;;;4.93;1.20;;;;;;;;;;5043945;28;20203;-30
2022/11/24 02:32:07;;;;;;;4.43;1.60;;;;;;;;;;5051613;28;20240;-29
2022/11/24 02:34:34;;;;;;;8.00;0.87;;;;;;;;;;5048422;28;20207;-28
2022/11/24 02:37:01;;;;;;;6.73;1.93;;;;;;;;;;5044838;28;20214;-29
2022/11/24 02:39:29;;;;;;;2.60;1.40;;;;;;;;;;5049614;28;20249;-27
2022/11/24 02:41:59;;;;;;;5.13;1.27;;;;;;;;;;5052661;28;20249;-28
2022/11/24 02:44:30;;;;;;;3.20;1.07;;;;;;;;;;5047914;28;20213;-28
2022/11/24 02:47:04;;;;;;;3.13;1.20;;;;;;;;;;5046753;28;20221;-30
2022/11/24 02:49:31;;;;;;;4.33;1.20;;;;;;;;;;5051922;28;20207;-27
2022/11/24 02:51:58;;;;;;;2.60;1.30;;;;;;;;;;5051957;28;20222;-27
2022/11/24 02:54:25;;;;;;;3.57;1.27;;;;;;;;;;5046648;28;20201;-32
2022/11/24 02:56:52;;;;;;;4.50;1.20;;;;;;;;;;5045230;28;20233;-31
2022/11/24 02:59:20;;;;;;;3.03;1.30;;;;;;;;;;5047332;28;20216;-27
2022/11/24 03:01:48;;;;;;;3.67;1.83;;;;;;;;;;5047642;28;20224;-28
2022/11/24 03:04:15;;;;;;;3.90;1.20;;;;;;;;;;5051831;28;20206;-27
2022/11/24 03:06:43;;;;;;;2.47;0.90;;;;;;;;;;5051432;28;20209;-28
2022/11/24 03:09:11;;;;;;;1.60;0.93;;;;;;;;;;5047217;28;20225;-27
2022/11/24 03:11:38;;;;;;;6.87;1.60;;;;;;;;;;5048599;28;20247;-30
2022/11/24 03:14:06;;;;;;;3.57;1.53;;;;;;;;;;5047714;28;20264;-29
2022/11/24 03:16:33;;;;;;;3.07;1.13;;;;;;;;;;5049969;28;20209;-30
2022/11/24 03:19:02;;;;;;;3.20;1.30;;;;;;;;;;5050062;28;20202;-28
2022/11/24 03:21:29;;;;;;;5.33;1.00;;;;;;;;;;5051647;28;20230;-29
2022/11/24 03:23:56;;;;;;;2.13;0.97;;;;;;;;;;5043395;28;20293;-32
2022/11/24 03:26:24;;;;;;;3.00;1.10;;;;;;;;;;5051293;28;20198;-27
2022/11/24 03:28:53;;;;;;;1.83;0.83;;;;;;;;;;5047799;28;20206;-27
2022/11/24 03:31:21;;;;;;;3.10;1.00;;;;;;;;;;5047281;28;20237;-29
2022/11/24 03:33:48;;;;;;;3.17;1.00;;;;;;;;;;5051128;28;20232;-27
2022/11/24 03:36:16;;;;;;;3.27;1.40;;;;;;;;;;5051457;28;20216;-31
2022/11/24 03:38:43;;;;;;;0.97;0.90;;;;;;;;;;5043387;28;20292;-27
2022/11/24 03:41:11;;;;;;;2.40;1.10;;;;;;;;;;5051144;28;20232;-30
2022/11/24 03:43:38;;;;;;;2.47;0.57;;;;;;;;;;5051479;28;20212;-29
2022/11/24 03:46:05;;;;;;;2.60;1.00;;;;;;;;;;5043993;28;20216;-26
2022/11/24 03:48:32;;;;;;;1.00;0.87;;;;;;;;;;5045462;28;20199;-31
2022/11/24 03:51:00;;;;;;;2.03;0.87;;;;;;;;;;5047996;28;20311;-27
2022/11/24 03:53:30;;;;;;;4.83;1.00;;;;;;;;;;5047174;28;20223;-32
2022/11/24 03:55:57;;;;;;;2.90;0.90;;;;;;;;;;5049694;28;20213;-29
2022/11/24 03:58:24;;;;;;;2.37;0.83;;;;;;;;;;5049504;28;20212;-28
2022/11/24 04:00:52;;;;;;;5.17;1.03;;;;;;;;;;5039794;28;20228;-32
2022/11/24 04:03:19;;;;;;;2.00;1.10;;;;;;;;;;5050233;28;20588;-30
2022/11/24 04:05:46;;;;;;;2.27;1.53;;;;;;;;;;5050838;28;20219;-30
2022/11/24 04:08:14;;;;;;;3.23;1.10;;;;;;;;;;5047302;28;20213;-30
2022/11/24 04:10:43;;;;;;;2.53;1.07;;;;;;;;;;5048648;28;20230;-27
2022/11/24 04:13:11;;;;;;;3.30;1.10;;;;;;;;;;5052629;28;20218;-27
2022/11/24 04:15:39;;;;;;;3.97;1.30;;;;;;;;;;5051187;28;20194;-29
2022/11/24 04:18:06;;;;;;;2.10;1.43;;;;;;;;;;5051121;28;20216;-30
2022/11/24 04:20:33;;;;;;;2.93;1.03;;;;;;;;;;5050478;28;20225;-30
2022/11/24 04:23:01;;;;;;;3.77;1.20;;;;;;;;;;5049153;28;20201;-31
2022/11/24 04:25:29;;;;;;;2.37;1.10;;;;;;;;;;5032619;28;20212;-32
2022/11/24 04:27:57;;;;;;;2.17;0.90;;;;;;;;;;5046141;28;20218;-29
2022/11/24 04:30:25;;;;;;;3.23;0.90;;;;;;;;;;5041646;28;20221;-30
2022/11/24 04:32:52;;;;;;;1.77;1.00;;;;;;;;;;5048645;28;20220;-30
2022/11/24 04:35:20;;;;;;;4.10;1.13;;;;;;;;;;5049940;28;20212;-26
2022/11/24 04:37:47;;;;;;;4.33;1.27;;;;;;;;;;5040760;28;20212;-28
2022/11/24 04:40:14;;;;;;;1.60;0.70;;;;;;;;;;5047830;28;20229;-30
2022/11/24 04:42:41;;;;;;;1.40;0.70;;;;;;;;;;5050601;28;20232;-32
2022/11/24 04:45:11;;;;;;;0.83;0.70;;;;;;;;;;5043676;28;20210;-30
2022/11/24 04:47:38;;;;;;;3.93;1.00;;;;;;;;;;5048515;28;20205;-29
2022/11/24 04:50:06;;;;;;;3.40;0.80;;;;;;;;;;5048598;28;20206;-31
2022/11/24 04:52:34;;;;;;;3.17;0.83;;;;;;;;;;5042683;28;20222;-27
2022/11/24 04:55:01;;;;;;;0.90;0.90;;;;;;;;;;5049388;28;20217;-26
2022/11/24 04:57:28;;;;;;;0.77;0.70;;;;;;;;;;5050411;28;20292;-30
2022/11/24 04:59:55;;;;;;;1.90;1.00;;;;;;;;;;5041850;28;20213;-28
2022/11/24 05:02:24;;;;;;;6.23;1.00;;;;;;;;;;5049237;28;20284;-29
2022/11/24 05:04:51;;;;;;;4.03;0.90;;;;;;;;;;5043213;28;20213;-26
2022/11/24 05:07:19;;;;;;;2.00;0.97;;;;;;;;;;5050838;28;20227;-27
2022/11/24 05:12:31;;;;;;;1.07;0.70;;;;;;;;;;5049354;28;20263;-28
2022/11/24 05:14:58;;;;;;;0.60;0.60;;;;;;;;;;5041578;28;20206;-29
2022/11/24 05:17:29;;;;;;;0.90;0.70;;;;;;;;;;5049419;28;20202;-31
2022/11/24 05:19:56;;;;;;;1.87;1.13;;;;;;;;;;5048911;28;20214;-31
2022/11/24 05:22:23;;;;;;;3.33;0.80;;;;;;;;;;5038054;28;20239;-26
2022/11/24 05:24:51;;;;;;;1.97;0.90;;;;;;;;;;5037944;28;20273;-27
2022/11/24 05:27:18;;;;;;;1.00;0.90;;;;;;;;;;5048662;28;20213;-33
2022/11/24 05:29:45;;;;;;;2.70;0.93;;;;;;;;;;5041397;28;20202;-27
2022/11/24 05:32:12;;;;;;;0.60;0.60;;;;;;;;;;5048463;28;20313;-29
2022/11/24 05:34:40;;;;;;;1.97;1.20;;;;;;;;;;5048562;28;20216;-32
2022/11/24 05:37:07;;;;;;;2.13;1.50;;;;;;;;;;5045907;28;20237;-31
2022/11/24 05:39:35;;;;;;;3.80;1.00;;;;;;;;;;5043589;28;20206;-30
2022/11/24 05:42:39;;;;;;;0.90;0.90;;;;;;;;;;5049654;28;20218;-28
2022/11/24 05:44:50;;;;;;;1.67;0.90;;;;;;;;;;5033046;28;20194;-28
2022/11/24 05:47:17;;;;;;;1.63;0.90;;;;;;;;;;5046231;28;20252;-28
2022/11/24 05:49:46;;;;;;;2.43;0.87;;;;;;;;;;5052022;28;20210;-27
2022/11/24 05:52:13;;;;;;;2.00;1.13;;;;;;;;;;5043139;28;20235;-29
2022/11/24 05:54:40;;;;;;;1.53;1.00;;;;;;;;;;5046357;28;20221;-28
2022/11/24 05:57:07;;;;;;;1.63;0.70;;;;;;;;;;5052329;28;20205;-31
2022/11/24 05:59:34;;;;;;;1.23;0.90;;;;;;;;;;5042133;28;20207;-29
2022/11/24 06:02:02;;;;;;;3.20;1.43;;;;;;;;;;5048343;28;20234;-28
2022/11/24 06:04:29;;;;;;;2.80;0.97;;;;;;;;;;5051795;28;20198;-26
2022/11/24 06:06:57;;;;;;;2.03;1.27;;;;;;;;;;5053502;28;20209;-31
2022/11/24 06:09:24;;;;;;;3.53;1.67;;;;;;;;;;5046316;28;20198;-28
2022/11/24 06:11:52;;;;;;;7.07;1.47;;;;;;;;;;5046383;28;20229;-30
2022/11/24 06:14:19;;;;;;;1.13;1.00;;;;;;;;;;5049993;28;20335;-28
2022/11/24 06:16:46;;;;;;;2.67;0.93;;;;;;;;;;5049347;28;20198;-30
2022/11/24 06:19:13;;;;;;;2.10;1.30;;;;;;;;;;5051733;28;20210;-29
2022/11/24 06:21:41;;;;;;;1.23;1.00;;;;;;;;;;5053102;28;20221;-26
2022/11/24 06:24:09;;;;;;;2.87;1.20;;;;;;;;;;5043702;28;20249;-28
2022/11/24 06:26:36;;;;;;;2.53;1.07;;;;;;;;;;5039555;28;20205;-30
2022/11/24 06:29:04;;;;;;;2.17;1.43;;;;;;;;;;5049908;28;20206;-30
2022/11/24 06:31:31;;;;;;;2.50;1.60;;;;;;;;;;5041296;28;20230;-27
2022/11/24 06:33:58;;;;;;;3.40;1.40;;;;;;;;;;5039954;28;20226;-26
2022/11/24 06:36:25;;;;;;;1.77;1.10;;;;;;;;;;5050320;28;20208;-30
2022/11/24 06:38:53;;;;;;;1.93;1.13;;;;;;;;;;5051555;28;20208;-31
2022/11/24 06:41:21;;;;;;;3.13;1.90;;;;;;;;;;5052515;28;20222;-30
2022/11/24 06:43:48;;;;;;;1.67;1.00;;;;;;;;;;5044732;28;20198;-29
2022/11/24 06:46:15;;;;;;;4.43;1.87;;;;;;;;;;5050376;28;20209;-25
2022/11/24 06:48:42;;;;;;;4.10;1.60;;;;;;;;;;5052261;28;20198;-32
2022/11/24 06:51:12;;;;;;;2.03;1.07;;;;;;;;;;5055325;28;20222;-30
2022/11/24 06:53:40;;;;;;;1.30;1.03;;;;;;;;;;5046082;28;20252;-29
2022/11/24 06:56:08;;;;;;;6.27;1.50;;;;;;;;;;5054057;28;20260;-32
2022/11/24 06:58:40;;;;;;;4.83;1.43;;;;;;;;;;5050140;28;20205;-30
2022/11/24 07:01:07;;;;;;;1.73;1.30;;;;;;;;;;5050153;28;20349;-28
2022/11/24 07:03:35;;;;;;;4.47;1.90;;;;;;;;;;5055940;28;20195;-29
2022/11/24 07:06:02;;;;;;;2.87;1.63;;;;;;;;;;5055894;28;20289;-28
2022/11/24 07:10:57;;;;;;;2.20;1.30;;;;;;;;;;5012278;28;20255;-27
2022/11/24 07:13:24;;;;;;;3.13;1.33;;;;;;;;;;5014502;28;20230;-27
2022/11/24 07:15:53;;;;;;;2.60;1.30;;;;;;;;;;5013721;28;20199;-27
2022/11/24 07:18:20;;;;;;;3.80;1.57;;;;;;;;;;5016778;28;20212;-26
2022/11/24 07:20:47;;;;;;;2.97;1.40;;;;;;;;;;5020267;28;20420;-28
2022/11/24 07:23:14;;;;;;;3.20;1.80;;;;;;;;;;5007004;28;20207;-27
2022/11/24 07:25:41;;;;;;;5.60;3.90;;;;;;;;;;5004613;28;20298;-27
2022/11/24 07:28:09;;;;;;;4.23;2.60;;;;;;;;;;5014064;28;20243;-28
2022/11/24 07:30:36;;;;;;;7.07;2.33;;;;;;;;;;5003875;28;20310;-24
2022/11/24 07:33:05;;;;;;;4.63;3.77;;;;;;;;;;5011321;28;20234;-26
2022/11/24 07:35:32;;;;;;;4.33;2.40;;;;;;;;;;5027157;28;20333;-26
2022/11/24 07:37:59;;;;;;;3.77;2.23;;;;;;;;;;5014903;28;20208;-27
2022/11/24 07:40:27;;;;;;;5.20;3.03;;;;;;;;;;5013880;28;20227;-26
2022/11/24 07:42:54;;;;;;;2.70;2.03;;;;;;;;;;5014477;28;20211;-28
2022/11/24 07:45:21;;;;;;;5.23;1.67;;;;;;;;;;5008238;28;20210;-27
2022/11/24 07:47:49;;;;;;;4.30;2.10;;;;;;;;;;5012772;28;20203;-28
2022/11/24 07:50:18;;;;;;;4.73;2.70;;;;;;;;;;5024385;28;20230;-27
2022/11/24 07:52:45;;;;;;;2.67;1.87;;;;;;;;;;5030197;28;20242;-26
2022/11/24 07:55:12;;;;;;;4.27;1.50;;;;;;;;;;4998712;28;20230;-28
2022/11/24 07:57:39;;;;;;;3.67;1.80;;;;;;;;;;5005344;28;20217;-25
2022/11/24 08:00:07;;;;;;;4.60;2.67;;;;;;;;;;5007446;28;20886;-28
2022/11/24 08:02:34;;;;;;;5.67;2.60;;;;;;;;;;5012288;28;20294;-27
2022/11/24 08:05:01;;;;;;;4.53;2.10;;;;;;;;;;5017954;28;20205;-27
2022/11/24 08:07:30;;;;;;;2.30;1.60;;;;;;;;;;5005545;28;20203;-27
2022/11/24 08:09:57;;;;;;;2.67;1.50;;;;;;;;;;5003625;28;20215;-26
2022/11/24 08:12:24;;;;;;;2.70;1.50;;;;;;;;;;5012237;28;20208;-27
2022/11/24 08:14:52;;;;;;;3.30;1.50;;;;;;;;;;5004180;28;20216;-28
2022/11/24 08:17:19;;;;;;;2.53;1.60;;;;;;;;;;5009796;28;20226;-28
2022/11/24 08:19:46;;;;;;;6.33;1.40;;;;;;;;;;5018370;28;20557;-26
2022/11/24 08:22:13;;;;;;;3.07;1.67;;;;;;;;;;5021599;28;20317;-26
2022/11/24 08:24:45;;;;;;;4.23;1.77;;;;;;;;;;5003421;28;20199;-27
2022/11/24 08:27:13;;;;;;;1.80;1.60;;;;;;;;;;5007324;28;20211;-27
2022/11/24 08:29:40;;;;;;;7.00;1.87;;;;;;;;;;5008794;28;20214;-27
2022/11/24 08:32:07;;;;;;;5.70;2.17;;;;;;;;;;5009286;28;20227;-25
2022/11/24 08:34:34;;;;;;;5.03;2.53;;;;;;;;;;5013144;28;20223;-28
2022/11/24 08:37:03;;;;;;;6.80;2.30;;;;;;;;;;5008835;28;20217;-28
2022/11/24 08:39:31;;;;;;;2.70;1.63;;;;;;;;;;5012173;28;20211;-26
2022/11/24 08:41:59;;;;;;;3.87;2.00;;;;;;;;;;5013205;28;20226;-27
2022/11/24 08:44:27;;;;;;;4.30;1.27;;;;;;;;;;5010350;28;20209;-26
2022/11/24 08:46:54;;;;;;;4.17;2.13;;;;;;;;;;5012230;28;20211;-26
2022/11/24 08:49:22;;;;;;;4.17;2.07;;;;;;;;;;5012231;28;20306;-25
2022/11/24 08:51:50;;;;;;;8.87;2.00;;;;;;;;;;5010115;28;20219;-28
2022/11/24 08:54:18;;;;;;;5.70;1.93;;;;;;;;;;5007054;28;20318;-27
2022/11/24 08:56:46;;;;;;;2.53;1.90;;;;;;;;;;5006486;28;20199;-25
2022/11/24 08:59:14;;;;;;;5.63;2.13;;;;;;;;;;5020414;28;20218;-25
2022/11/24 09:01:41;;;;;;;9.83;2.43;;;;;;;;;;5002249;28;20219;-29
2022/11/24 09:04:08;;;;;;;7.80;2.30;;;;;;;;;;5000147;28;20451;-27
2022/11/24 09:06:35;;;;;;;9.53;2.10;;;;;;;;;;5011333;28;20203;-26
2022/11/24 09:09:03;;;;;;;7.67;2.23;;;;;;;;;;4973582;28;1080628;-26
2022/11/24 09:11:30;;;;;;;7.57;2.13;;;;;;;;;;5004705;28;20689;-28
2022/11/24 09:13:57;;;;;;;11.30;2.37;;;;;;;;;;4992594;28;20318;-26
2022/11/24 09:16:27;;;;;;;9.63;2.10;;;;;;;;;;5006477;28;20209;-28
2022/11/24 09:18:55;;;;;;;7.90;2.00;;;;;;;;;;5016190;28;20210;-27
2022/11/24 09:21:22;;;;;;;6.10;1.70;;;;;;;;;;5016308;28;20258;-27
2022/11/24 09:23:50;;;;;;;5.10;2.10;;;;;;;;;;5011975;28;20227;-27
2022/11/24 09:26:18;;;;;;;7.13;1.83;;;;;;;;;;5010245;28;20214;-25
2022/11/24 09:28:46;;;;;;;7.27;2.30;;;;;;;;;;5022171;28;20203;-28
2022/11/24 09:31:15;;;;;;;8.00;2.10;;;;;;;;;;5011968;28;20227;-26
2022/11/24 09:33:44;;;;;;;5.90;1.67;;;;;;;;;;5009532;28;20227;-26
2022/11/24 09:36:11;;;;;;;5.10;1.90;;;;;;;;;;5034303;28;20202;-26
2022/11/24 09:38:38;;;;;;;8.07;2.10;;;;;;;;;;5030067;28;20222;-27
2022/11/24 09:41:21;;;;;;;4.00;1.70;;;;;;;;;;5008337;28;20223;-25
2022/11/24 09:43:52;;;;;;;8.30;1.90;;;;;;;;;;5018393;28;20202;-28
2022/11/24 09:46:20;;;;;;;8.43;2.03;;;;;;;;;;5006855;28;20214;-28
2022/11/24 09:48:51;;;;;;;8.50;2.33;;;;;;;;;;5015473;28;20226;-28
2022/11/24 09:51:23;;;;;;;9.10;2.10;;;;;;;;;;5015900;28;20235;-27
2022/11/24 09:53:54;;;;;;;5.97;2.43;;;;;;;;;;5012361;28;20334;-27
2022/11/24 09:56:22;;;;;;;7.10;1.60;;;;;;;;;;5014303;28;20574;-37
2022/11/24 09:58:50;;;;;;;6.83;2.07;;;;;;;;;;5012774;28;20204;-27
2022/11/24 10:01:18;;;;;;;5.23;2.20;;;;;;;;;;5004851;28;20228;-26
2022/11/24 10:03:46;;;;;;;4.73;1.97;;;;;;;;;;5015476;28;20204;-26
2022/11/24 10:06:19;;;;;;;3.40;1.60;;;;;;;;;;5023382;28;20427;-29
2022/11/24 10:08:55;;;;;;;4.20;1.67;;;;;;;;;;5009055;28;20278;-27
2022/11/24 10:11:28;;;;;;;6.03;1.63;;;;;;;;;;5009687;28;20233;-29
2022/11/24 10:14:04;;;;;;;5.40;2.00;;;;;;;;;;5012351;28;20211;-26
2022/11/24 10:16:40;;;;;;;5.53;1.87;;;;;;;;;;5011793;28;20199;-25
2022/11/24 10:19:13;;;;;;;2.70;1.37;;;;;;;;;;5015461;28;20202;-28
2022/11/24 10:21:57;;;;;;;5.33;1.67;;;;;;;;;;5015568;28;20227;-28
2022/11/24 10:24:32;;;;;;;7.23;1.33;;;;;;;;;;5000327;28;20286;-28
2022/11/24 10:27:02;;;;;;;5.23;2.17;;;;;;;;;;5009092;28;20214;-24
2022/11/24 10:29:31;;;;;;;6.13;1.70;;;;;;;;;;5005111;28;20230;-27
2022/11/24 10:31:58;;;;;;;7.93;1.77;;;;;;;;;;5014862;28;20227;-26
2022/11/24 10:34:29;;;;;;;2.33;1.30;;;;;;;;;;5008722;28;20223;-26
2022/11/24 10:37:00;;;;;;;4.67;1.37;;;;;;;;;;5009780;28;20207;-26
2022/11/24 10:39:30;;;;;;;2.97;1.90;;;;;;;;;;5010053;28;20204;-27
2022/11/24 10:42:00;;;;;;;2.57;1.33;;;;;;;;;;5018704;28;20226;-29
2022/11/24 10:44:28;;;;;;;4.53;1.80;;;;;;;;;;5013658;28;20395;-26
2022/11/24 10:46:55;;;;;;;10.10;2.10;;;;;;;;;;5005072;28;20205;-26
2022/11/24 10:49:24;;;;;;;3.90;1.40;;;;;;;;;;5011529;28;20662;-28
2022/11/24 10:51:58;;;;;;;3.63;1.37;;;;;;;;;;5011179;28;20233;-28
2022/11/24 10:54:26;;;;;;;2.93;1.60;;;;;;;;;;5000741;28;20211;-25
2022/11/24 10:56:54;;;;;;;6.33;1.67;;;;;;;;;;5001596;28;20210;-28
2022/11/24 10:59:23;;;;;;;6.03;1.47;;;;;;;;;;5006289;28;20635;-25
2022/11/24 11:01:50;;;;;;;6.17;1.70;;;;;;;;;;5004709;28;20229;-27
2022/11/24 11:04:19;;;;;;;5.70;1.47;;;;;;;;;;5012032;28;20209;-29
2022/11/24 11:06:46;;;;;;;5.07;1.70;;;;;;;;;;5022978;28;20287;-28
2022/11/24 11:09:18;;;;;;;7.73;1.83;;;;;;;;;;5007952;28;20219;-26
2022/11/24 11:11:47;;;;;;;3.73;1.40;;;;;;;;;;5006932;28;20231;-26
2022/11/24 11:14:29;;;;;;;1.73;1.03;;;;;;;;;;5002483;28;20455;-26
2022/11/24 11:16:57;;;;;;;2.80;1.10;;;;;;;;;;5005293;28;20200;-29
2022/11/24 11:19:35;;;;;;;2.90;1.03;;;;;;;;;;5010205;28;20203;-26
2022/11/24 11:22:03;;;;;;;5.00;1.30;;;;;;;;;;5010199;28;20237;-29
2022/11/24 11:24:31;;;;;;;2.90;0.97;;;;;;;;;;4993582;28;20209;-27
2022/11/24 11:27:07;;;;;;;2.93;0.90;;;;;;;;;;5002227;28;20203;-27
2022/11/24 11:29:36;;;;;;;3.63;1.10;;;;;;;;;;5007304;28;20227;-28
2022/11/24 11:32:04;;;;;;;4.70;1.20;;;;;;;;;;5007184;28;20227;-28
2022/11/24 11:34:34;;;;;;;2.57;0.90;;;;;;;;;;5014915;28;20223;-29
2022/11/24 11:37:03;;;;;;;2.13;0.80;;;;;;;;;;5013256;28;20211;-24
2022/11/24 11:39:31;;;;;;;2.93;0.90;;;;;;;;;;4991131;28;20210;-27
2022/11/24 11:42:03;;;;;;;4.20;1.00;;;;;;;;;;5006573;28;20227;-27
2022/11/24 11:44:35;;;;;;;1.30;0.83;;;;;;;;;;5004311;28;20204;-27
2022/11/24 11:47:09;;;;;;;2.97;0.83;;;;;;;;;;5006256;28;20254;-26
2022/11/24 11:49:39;;;;;;;3.23;0.73;;;;;;;;;;5010211;28;20435;-27
2022/11/24 11:52:18;;;;;;;1.50;0.73;;;;;;;;;;5018278;28;20229;-29
2022/11/24 11:54:57;;;;;;;2.20;0.93;;;;;;;;;;5002381;28;20227;-27
2022/11/24 11:57:29;;;;;;;0.87;0.83;;;;;;;;;;5010274;28;20188;-27
2022/11/24 12:00:04;;;;;;;1.63;0.83;;;;;;;;;;5000001;28;20291;-26
2022/11/24 12:02:55;;;;;;;1.33;0.80;;;;;;;;;;5002418;28;20199;-28
2022/11/24 12:05:30;;;;;;;2.73;0.90;;;;;;;;;;5020845;28;20205;-25
2022/11/24 12:08:07;;;;;;;1.40;1.03;;;;;;;;;;5008813;28;20219;-27
2022/11/24 12:10:37;;;;;;;1.30;0.73;;;;;;;;;;5001786;28;20254;-28
2022/11/24 12:13:14;;;;;;;3.93;1.13;;;;;;;;;;5007904;28;20203;-25
2022/11/24 12:15:44;;;;;;;0.70;0.70;;;;;;;;;;4997691;28;20218;-27
2022/11/24 12:18:20;;;;;;;1.33;1.07;;;;;;;;;;5008771;28;20203;-26
2022/11/24 12:20:54;;;;;;;1.10;0.80;;;;;;;;;;5009820;28;21018;-25
2022/11/24 12:23:32;;;;;;;4.47;0.90;;;;;;;;;;5006438;28;20203;-25
2022/11/24 12:26:02;;;;;;;2.23;1.17;;;;;;;;;;5009664;28;20203;-27
2022/11/24 12:28:33;;;;;;;1.53;0.50;;;;;;;;;;5009806;28;20199;-26
2022/11/24 12:31:05;;;;;;;5.03;0.90;;;;;;;;;;4996231;28;20229;-27
2022/11/24 12:33:48;;;;;;;4.37;0.97;;;;;;;;;;5001934;28;20290;-25
2022/11/24 12:36:29;;;;;;;1.40;0.80;;;;;;;;;;4998428;28;20227;-26
2022/11/24 12:38:59;;;;;;;2.20;0.70;;;;;;;;;;4998755;28;20565;-26
2022/11/24 12:41:31;;;;;;;3.47;0.70;;;;;;;;;;5006855;28;20227;-27
2022/11/24 12:43:59;;;;;;;3.70;1.10;;;;;;;;;;5006058;28;20233;-26
2022/11/24 12:46:39;;;;;;;0.80;0.80;;;;;;;;;;5003671;28;20287;-26
2022/11/24 12:49:11;;;;;;;1.50;0.80;;;;;;;;;;5009040;28;20286;-27
2022/11/24 12:51:42;;;;;;;1.67;0.97;;;;;;;;;;5009595;28;20231;-24
2022/11/24 12:54:11;;;;;;;3.47;0.80;;;;;;;;;;5010830;28;20544;-29
2022/11/24 12:56:40;;;;;;;2.53;1.00;;;;;;;;;;5009258;28;20234;-27
2022/11/24 12:59:17;;;;;;;1.67;1.00;;;;;;;;;;5007764;28;20650;-27
2022/11/24 13:01:49;;;;;;;1.80;0.97;;;;;;;;;;5002525;28;20223;-28
2022/11/24 13:04:30;;;;;;;2.47;1.00;;;;;;;;;;5011598;28;20234;-26
2022/11/24 13:07:01;;;;;;;1.47;0.93;;;;;;;;;;5017960;28;20206;-27
2022/11/24 13:09:28;;;;;;;3.93;1.77;;;;;;;;;;4993001;28;20211;-27
2022/11/24 13:12:05;;;;;;;2.17;1.30;;;;;;;;;;5009586;28;20225;-26
2022/11/24 13:14:33;;;;;;;3.13;1.50;;;;;;;;;;4992802;28;20233;-29
2022/11/24 13:17:01;;;;;;;1.87;1.20;;;;;;;;;;5011630;28;20208;-27
2022/11/24 13:19:34;;;;;;;3.13;1.20;;;;;;;;;;5015588;28;20203;-28
2022/11/24 13:22:08;;;;;;;3.63;1.67;;;;;;;;;;5023822;28;20235;-26
2022/11/24 13:24:40;;;;;;;1.60;1.50;;;;;;;;;;5002632;28;20203;-27
2022/11/24 13:27:27;;;;;;;3.47;1.67;;;;;;;;;;5011707;28;20739;-28
2022/11/24 13:29:55;;;;;;;2.33;1.30;;;;;;;;;;5001291;28;20273;-28
2022/11/24 13:32:52;;;;;;;2.83;1.30;;;;;;;;;;5006233;28;20286;-27
2022/11/24 13:35:19;;;;;;;3.53;1.20;;;;;;;;;;5017751;28;20508;-27
2022/11/24 13:37:52;;;;;;;1.20;0.90;;;;;;;;;;4993556;28;20658;-27
2022/11/24 13:40:37;;;;;;;1.80;0.70;;;;;;;;;;5002993;28;20227;-29
2022/11/24 13:43:21;;;;;;;6.93;1.30;;;;;;;;;;5008999;28;20203;-27
2022/11/24 13:45:49;;;;;;;3.47;1.03;;;;;;;;;;4999010;28;20215;-28
2022/11/24 13:48:31;;;;;;;5.30;1.23;;;;;;;;;;5007183;28;20215;-28
2022/11/24 13:51:09;;;;;;;3.80;1.10;;;;;;;;;;5015232;28;20276;-28
2022/11/24 13:53:42;;;;;;;1.87;0.80;;;;;;;;;;4997279;28;20661;-27
2022/11/24 13:56:20;;;;;;;2.63;0.97;;;;;;;;;;5003710;28;20283;-29
2022/11/24 13:58:50;;;;;;;3.17;0.90;;;;;;;;;;5008285;28;20301;-27
2022/11/24 14:01:19;;;;;;;2.03;0.87;;;;;;;;;;4990647;28;20238;-27
2022/11/24 14:03:52;;;;;;;4.90;0.97;;;;;;;;;;5006131;28;20203;-25
2022/11/24 14:06:22;;;;;;;5.73;1.20;;;;;;;;;;5013008;28;20203;-26
2022/11/24 14:08:51;;;;;;;5.13;1.07;;;;;;;;;;5005173;28;20199;-27
2022/11/24 14:11:19;;;;;;;3.10;1.10;;;;;;;;;;5012649;28;20314;-28
2022/11/24 14:13:53;;;;;;;0.80;0.70;;;;;;;;;;5011546;28;20397;-28
2022/11/24 14:16:21;;;;;;;2.83;1.47;;;;;;;;;;5004933;28;20242;-28
2022/11/24 14:18:49;;;;;;;3.37;0.80;;;;;;;;;;5011432;28;20282;-29
2022/11/24 14:21:22;;;;;;;3.63;0.93;;;;;;;;;;5013788;28;20233;-28
2022/11/24 14:23:52;;;;;;;7.17;0.87;;;;;;;;;;5004855;28;20206;-29
2022/11/24 14:26:20;;;;;;;3.23;1.03;;;;;;;;;;5009469;28;20626;-27
2022/11/24 14:28:47;;;;;;;2.67;0.93;;;;;;;;;;5011618;28;20215;-27
2022/11/24 14:31:19;;;;;;;3.87;1.10;;;;;;;;;;5003521;28;20236;-29
2022/11/24 14:33:47;;;;;;;5.27;1.00;;;;;;;;;;5012990;28;20204;-29
2022/11/24 14:36:15;;;;;;;2.43;1.10;;;;;;;;;;5018213;28;20235;-30
2022/11/24 14:38:42;;;;;;;3.50;1.20;;;;;;;;;;5004442;28;20207;-28
2022/11/24 14:41:25;;;;;;;3.87;1.63;;;;;;;;;;5009343;28;20234;-25
2022/11/24 14:44:04;;;;;;;3.50;1.00;;;;;;;;;;5010717;28;20230;-28
2022/11/24 14:46:31;;;;;;;3.60;1.30;;;;;;;;;;5005702;28;20202;-28
2022/11/24 14:48:58;;;;;;;4.70;0.87;;;;;;;;;;5012328;28;20231;-29
2022/11/24 14:51:27;;;;;;;6.20;1.47;;;;;;;;;;4998444;28;20277;-28
2022/11/24 14:53:55;;;;;;;5.27;0.90;;;;;;;;;;5008400;28;20228;-27
2022/11/24 14:56:25;;;;;;;1.90;0.77;;;;;;;;;;5011619;28;20711;-28
2022/11/24 14:58:53;;;;;;;3.90;0.97;;;;;;;;;;5009706;28;20204;-30
2022/11/24 15:01:22;;;;;;;3.40;1.20;;;;;;;;;;5002618;28;20255;-26